Time;durP1;ratioP1;P1;durP2;ratioP2;P2;SDS_P1;SDS_P2;PMS_P1;PMS_P2;Temp;Humidity;BMP_temperature;BMP_pressure;BME280_temperature;BME280_humidity;BME280_pressure;Samples;Min_cycle;Max_cycle;Signal;HPM_P1;HPM_P2
2022/02/02 00:00:00;;;;;;;94.47;47.13;;;;;;;-0.42;63.76;100346.53;1855660;77;27519;-59
2022/02/02 00:05:05;;;;;;;97.37;46.37;;;;;;;-0.39;64.00;100344.20;1856405;77;25445;-59
2022/02/02 00:07:33;;;;;;;103.62;48.23;;;;;;;-0.41;64.04;100344.28;1853525;77;25682;-59
2022/02/02 00:09:59;;;;;;;110.52;47.78;;;;;;;-0.43;63.87;100347.45;1853324;76;25752;-59
2022/02/02 00:12:40;;;;;;;108.37;48.75;;;;;;;-0.45;63.87;100334.78;1855487;77;27480;-59
2022/02/02 00:17:44;;;;;;;102.55;47.35;;;;;;;-0.57;63.85;100341.53;1800434;77;25802;-58
2022/02/02 00:20:15;;;;;;;109.78;48.13;;;;;;;-0.61;64.04;100332.03;1854303;77;25807;-58
2022/02/02 00:22:36;;;;;;;94.80;47.93;;;;;;;-0.62;64.07;100328.16;1832415;77;25667;-58
2022/02/02 00:25:12;;;;;;;117.08;45.98;;;;;;;-0.66;64.07;100330.94;1811958;77;27475;-58
2022/02/02 00:27:36;;;;;;;101.60;46.95;;;;;;;-0.68;64.18;100327.54;1809867;77;25934;-59
2022/02/02 00:30:06;;;;;;;80.87;41.53;;;;;;;-0.70;64.25;100325.88;1811312;78;25682;-58
2022/02/02 00:32:55;;;;;;;91.32;41.37;;;;;;;-0.75;64.14;100325.27;1811115;77;25811;-59
2022/02/02 00:35:08;;;;;;;99.10;42.78;;;;;;;-0.80;64.20;100317.56;1807108;77;25833;-58
2022/02/02 00:37:35;;;;;;;87.80;39.00;;;;;;;-0.90;64.00;100322.44;1841755;77;27432;-59
2022/02/02 00:40:06;;;;;;;105.07;45.40;;;;;;;-1.00;64.79;100323.33;1856202;77;25641;-58
2022/02/02 00:42:35;;;;;;;91.22;41.75;;;;;;;-1.11;64.43;100313.73;1820283;77;25631;-58
2022/02/02 00:45:05;;;;;;;86.63;41.65;;;;;;;-1.23;64.59;100312.53;1814051;77;25789;-58
2022/02/02 00:47:37;;;;;;;98.52;43.15;;;;;;;-1.31;64.92;100305.45;1813748;79;26034;-59
2022/02/02 00:50:09;;;;;;;103.70;44.35;;;;;;;-1.36;64.72;100299.54;1814880;77;27453;-59
2022/02/02 00:52:35;;;;;;;88.62;42.70;;;;;;;-1.37;64.80;100295.19;1856771;77;25717;-58
2022/02/02 00:55:04;;;;;;;105.63;46.60;;;;;;;-1.40;64.97;100289.59;1856959;77;25776;-58
2022/02/02 00:57:31;;;;;;;90.17;44.67;;;;;;;-1.41;64.99;100283.92;1856529;77;25786;-59
2022/02/02 00:59:58;;;;;;;95.80;41.83;;;;;;;-1.38;65.12;100285.08;1856545;77;25768;-59
2022/02/02 01:02:25;;;;;;;94.15;44.88;;;;;;;-1.35;65.08;100278.83;1856736;77;27462;-59
2022/02/02 01:04:52;;;;;;;97.27;45.78;;;;;;;-1.35;65.01;100278.34;1855865;77;25720;-58
2022/02/02 01:10:05;;;;;;;106.43;43.30;;;;;;;-1.34;64.96;100266.87;1822673;78;26147;-57
2022/02/02 01:16:03;;;;;;;93.67;43.33;;;;;;;-1.43;64.73;100260.22;1769582;81;29611;-58
2022/02/02 01:18:14;;;;;;;91.72;42.83;;;;;;;-1.45;64.88;100262.11;1788079;78;25717;-58
2022/02/02 01:28:15;;;;;;;91.50;40.45;;;;;;;-1.60;65.13;100265.44;1828351;78;27309;-57
2022/02/02 01:30:43;;;;;;;80.50;38.83;;;;;;;-1.65;65.04;100263.48;1825444;78;25708;-59
2022/02/02 01:33:10;;;;;;;86.72;42.48;;;;;;;-1.69;65.11;100250.91;1828230;78;25694;-58
2022/02/02 01:35:37;;;;;;;95.17;40.45;;;;;;;-1.71;65.16;100258.50;1828063;78;25826;-58
2022/02/02 01:38:04;;;;;;;108.00;45.10;;;;;;;-1.72;65.32;100255.47;1828196;78;25476;-57
2022/02/02 01:40:37;;;;;;;95.55;42.40;;;;;;;-1.70;65.51;100252.30;1766223;79;27455;-58
2022/02/02 01:43:07;;;;;;;95.25;43.83;;;;;;;-1.66;65.55;100253.38;1793364;80;25764;-57
2022/02/02 01:45:44;;;;;;;91.32;41.42;;;;;;;-1.61;65.57;100246.58;1795137;78;25921;-58
2022/02/02 01:53:46;;;;;;;101.47;42.58;;;;;;;-1.53;65.45;100243.59;1751460;78;28282;-59
2022/02/02 01:56:15;;;;;;;95.12;39.83;;;;;;;-1.48;65.34;100248.20;1816478;78;25969;-59
2022/02/02 01:59:03;;;;;;;85.03;39.00;;;;;;;-1.46;65.30;100246.33;1817614;78;35316;-58
2022/02/02 02:01:32;;;;;;;89.45;40.88;;;;;;;-1.49;65.29;100231.50;1809814;78;26768;-57
2022/02/02 02:03:59;;;;;;;86.17;39.95;;;;;;;-1.52;65.38;100228.16;1785305;80;25758;-58
2022/02/02 02:06:27;;;;;;;89.50;38.95;;;;;;;-1.50;65.42;100231.11;1785644;80;27513;-59
2022/02/02 02:08:54;;;;;;;80.62;38.42;;;;;;;-1.52;65.47;100227.67;1785347;80;25769;-59
2022/02/02 02:11:23;;;;;;;86.80;37.83;;;;;;;-1.53;65.40;100226.00;1787517;79;25447;-59
2022/02/02 02:16:20;;;;;;;89.22;42.00;;;;;;;-1.55;65.38;100219.06;1786921;79;25758;-59
2022/02/02 02:18:47;;;;;;;95.70;41.75;;;;;;;-1.57;65.44;100216.02;1787241;80;26926;-59
2022/02/02 02:21:16;;;;;;;81.53;39.73;;;;;;;-1.54;65.53;100218.13;1787015;80;25748;-59
2022/02/02 02:23:45;;;;;;;92.27;40.45;;;;;;;-1.52;65.49;100217.60;1789649;79;25888;-59
2022/02/02 02:26:21;;;;;;;108.75;42.50;;;;;;;-1.51;65.62;100223.27;1786338;80;25792;-58
2022/02/02 02:29:01;;;;;;;95.12;42.25;;;;;;;-1.47;65.67;100215.59;1789211;80;25671;-58
2022/02/02 02:31:28;;;;;;;84.10;40.10;;;;;;;-1.44;65.53;100212.37;1782135;80;28285;-58
2022/02/02 02:34:10;;;;;;;94.85;40.38;;;;;;;-1.37;65.61;100206.79;1787630;80;25795;-58
2022/02/02 02:58:40;;;;;;;83.15;35.75;;;;;;;-1.26;65.40;100184.22;1813730;79;29632;-58
2022/02/02 03:50:07;;;;;;;76.75;34.55;;;;;;;-1.19;65.88;100162.80;1856047;77;25853;-59
2022/02/02 03:57:48;;;;;;;63.00;32.08;;;;;;;-1.24;66.13;100160.86;1822988;78;25741;-58
2022/02/02 04:05:44;;;;;;;66.50;29.77;;;;;;;-1.21;66.05;100157.61;1856646;77;27401;-58
2022/02/02 04:08:27;;;;;;;70.05;32.03;;;;;;;-1.20;65.97;100157.12;1856070;77;25723;-58
2022/02/02 04:10:56;;;;;;;75.83;31.73;;;;;;;-1.15;66.20;100155.97;1856426;77;25796;-58
2022/02/02 04:13:52;;;;;;;75.50;32.35;;;;;;;-1.11;66.33;100158.86;1856596;77;25764;-58
2022/02/02 05:06:56;;;;;;;60.63;29.12;;;;;;;-1.14;65.96;100154.20;1856730;77;26693;-58
2022/02/02 05:09:34;;;;;;;59.88;27.85;;;;;;;-1.15;66.12;100153.81;1855218;77;25882;-59
2022/02/02 05:19:58;;;;;;;61.15;25.75;;;;;;;-1.28;66.62;100152.25;1809979;79;25719;-59
2022/02/02 05:51:37;;;;;;;56.45;23.90;;;;;;;-1.71;66.79;100170.99;1843509;77;27444;-57
2022/02/02 05:53:53;;;;;;;52.35;23.80;;;;;;;-1.76;66.69;100165.09;1840828;77;25740;-58
2022/02/02 05:56:20;;;;;;;48.98;22.52;;;;;;;-1.81;66.80;100164.44;1843384;77;25778;-58
2022/02/02 05:58:48;;;;;;;51.40;23.67;;;;;;;-1.82;67.04;100169.31;1843292;77;26553;-58
2022/02/02 06:01:16;;;;;;;56.58;25.30;;;;;;;-1.83;67.10;100164.97;1843352;77;25800;-58
2022/02/02 06:03:56;;;;;;;52.58;24.65;;;;;;;-1.79;67.04;100161.27;1843114;77;28207;-58
2022/02/02 06:06:25;;;;;;;59.63;24.00;;;;;;;-1.76;67.22;100161.98;1843585;77;25717;-59
2022/02/02 06:08:54;;;;;;;53.98;23.75;;;;;;;-1.76;67.03;100163.78;1842845;77;25800;-58
2022/02/02 06:11:25;;;;;;;62.67;24.12;;;;;;;-1.71;67.19;100166.20;1847372;77;25739;-58
2022/02/02 06:13:57;;;;;;;52.13;25.65;;;;;;;-1.68;67.14;100169.98;1846086;77;25725;-57
2022/02/02 06:16:28;;;;;;;58.15;25.68;;;;;;;-1.67;67.14;100167.74;1837971;77;26954;-57
2022/02/02 06:18:57;;;;;;;72.32;31.73;;;;;;;-1.65;67.15;100163.26;1842591;77;25753;-58
2022/02/02 06:21:33;;;;;;;55.17;25.12;;;;;;;-1.61;67.05;100167.44;1838928;77;25706;-58
2022/02/02 06:24:19;;;;;;;65.83;25.90;;;;;;;-1.57;67.10;100164.59;1836034;77;25728;-57
2022/02/02 06:26:49;;;;;;;53.87;25.65;;;;;;;-1.52;67.07;100159.56;1842836;76;25756;-58
2022/02/02 06:29:17;;;;;;;54.48;24.95;;;;;;;-1.47;67.16;100165.02;1847107;77;27407;-57
2022/02/02 06:31:45;;;;;;;52.23;23.67;;;;;;;-1.45;66.91;100164.48;1831006;77;25782;-58
2022/02/02 06:34:15;;;;;;;52.38;23.62;;;;;;;-1.44;66.74;100166.64;1833874;77;25743;-57
2022/02/02 06:36:42;;;;;;;60.38;25.12;;;;;;;-1.41;66.88;100166.51;1848709;77;25854;-57
2022/02/02 06:39:12;;;;;;;48.55;22.27;;;;;;;-1.36;66.85;100173.72;1841486;76;25865;-57
2022/02/02 06:41:39;;;;;;;62.30;24.25;;;;;;;-1.37;66.92;100168.05;1847956;77;27469;-58
2022/02/02 06:44:07;;;;;;;49.93;22.98;;;;;;;-1.43;66.64;100165.24;1854741;77;25826;-58
2022/02/02 06:46:38;;;;;;;46.88;22.87;;;;;;;-1.42;66.99;100171.39;1853873;77;25681;-58
2022/02/02 06:49:04;;;;;;;54.93;25.60;;;;;;;-1.32;67.35;100167.38;1838636;77;26476;-58
2022/02/02 06:51:42;;;;;;;53.92;23.32;;;;;;;-1.23;67.22;100162.58;1840994;77;25746;-58
2022/02/02 06:54:30;;;;;;;60.25;25.05;;;;;;;-1.13;67.03;100158.08;1838926;77;27482;-57
2022/02/02 06:57:04;;;;;;;74.70;26.73;;;;;;;-1.05;67.05;100159.02;1832264;77;25690;-57
2022/02/02 07:02:34;;;;;;;60.55;26.42;;;;;;;-0.85;66.79;100151.41;1844105;77;25805;-58
2022/02/02 07:05:28;;;;;;;65.55;26.50;;;;;;;-0.72;66.69;100150.30;1840774;77;25788;-58
2022/02/02 07:11:22;;;;;;;68.92;30.20;;;;;;;-0.53;66.64;100147.55;1841446;77;25741;-58
2022/02/02 07:14:07;;;;;;;67.65;29.82;;;;;;;-0.40;66.61;100143.79;1820023;77;25827;-58
2022/02/02 07:16:40;;;;;;;57.98;28.25;;;;;;;-0.30;66.36;100145.94;1813171;77;25869;-57
2022/02/02 07:29:42;;;;;;;68.87;28.70;;;;;;;0.08;65.91;100137.73;1835313;77;25839;-57
2022/02/02 07:34:47;;;;;;;66.37;28.25;;;;;;;0.20;65.80;100137.06;1838846;77;27472;-58
2022/02/02 07:37:14;;;;;;;59.88;24.98;;;;;;;0.26;65.80;100142.48;1842832;77;25746;-58
2022/02/02 07:39:42;;;;;;;71.95;27.62;;;;;;;0.31;65.66;100139.09;1825928;77;25743;-59
2022/02/02 07:42:11;;;;;;;63.90;28.83;;;;;;;0.39;65.81;100143.48;1834028;77;26401;-59
2022/02/02 07:44:41;;;;;;;60.00;25.43;;;;;;;0.50;65.68;100138.06;1829433;77;25583;-58
2022/02/02 07:47:11;;;;;;;63.92;27.32;;;;;;;0.54;65.49;100128.53;1843129;77;28141;-59
2022/02/02 07:49:42;;;;;;;66.80;27.02;;;;;;;0.62;65.48;100128.95;1843049;77;25736;-58
2022/02/02 07:52:09;;;;;;;61.50;25.92;;;;;;;0.69;65.30;100129.91;1842764;77;25737;-58
2022/02/02 07:54:40;;;;;;;58.70;25.65;;;;;;;0.73;65.18;100124.34;1838850;77;25907;-58
2022/02/02 07:57:13;;;;;;;60.63;28.07;;;;;;;0.76;65.14;100128.63;1842734;77;25663;-58
2022/02/02 08:00:04;;;;;;;61.68;27.27;;;;;;;0.79;64.83;100124.46;1843536;77;28132;-59
2022/02/02 08:02:17;;;;;;;75.40;29.40;;;;;;;0.74;64.53;100124.73;1834638;77;25492;-57
2022/02/02 08:04:43;;;;;;;60.92;28.73;;;;;;;0.72;64.80;100122.64;1843367;77;25405;-57
2022/02/02 08:07:18;;;;;;;71.45;28.80;;;;;;;0.81;64.91;100116.45;1843279;77;25785;-57
2022/02/02 08:09:46;;;;;;;56.18;27.50;;;;;;;0.84;64.84;100101.23;1811638;77;25663;-58
2022/02/02 08:12:16;;;;;;;69.87;29.12;;;;;;;0.91;64.79;100101.70;1824678;77;27385;-59
2022/02/02 08:14:41;;;;;;;71.17;30.27;;;;;;;0.95;64.62;100096.62;1855079;77;25714;-57
2022/02/02 08:17:08;;;;;;;60.60;30.62;;;;;;;0.99;64.60;100097.28;1856248;77;25718;-58
2022/02/02 08:19:37;;;;;;;57.38;27.52;;;;;;;1.07;64.70;100095.90;1856445;77;25793;-57
2022/02/02 08:22:04;;;;;;;52.13;22.98;;;;;;;1.16;64.53;100105.56;1856353;77;25800;-57
2022/02/02 08:24:31;;;;;;;46.60;23.73;;;;;;;1.25;64.43;100100.55;1849006;77;27509;-57
2022/02/02 08:26:58;;;;;;;60.30;25.17;;;;;;;1.38;64.22;100100.65;1840271;77;25706;-57
2022/02/02 08:29:26;;;;;;;54.38;24.00;;;;;;;1.46;63.90;100104.17;1823002;78;25675;-57
2022/02/02 08:31:54;;;;;;;56.50;24.07;;;;;;;1.51;63.93;100104.72;1822567;77;26498;-57
2022/02/02 08:34:22;;;;;;;59.70;23.75;;;;;;;1.61;63.98;100101.50;1816192;79;25650;-58
2022/02/02 08:36:53;;;;;;;60.17;29.02;;;;;;;1.74;63.76;100102.91;1816364;79;26896;-57
2022/02/02 08:39:28;;;;;;;79.85;40.35;;;;;;;1.91;63.90;100104.03;1815656;79;25980;-58
2022/02/02 08:41:50;;;;;;;66.02;34.98;;;;;;;2.12;63.85;100103.13;1812825;77;25445;-57
2022/02/02 08:44:21;;;;;;;59.42;29.07;;;;;;;2.38;63.70;100109.88;1813303;79;25709;-57
2022/02/02 08:47:07;;;;;;;71.02;28.52;;;;;;;2.57;63.20;100101.58;1814284;77;25729;-59
2022/02/02 08:49:17;;;;;;;70.15;28.27;;;;;;;2.82;62.53;100099.45;1780285;78;27493;-59
2022/02/02 08:51:47;;;;;;;52.53;23.02;;;;;;;3.01;61.64;100095.55;1777638;80;25948;-58
2022/02/02 08:54:26;;;;;;;59.03;23.95;;;;;;;3.15;61.22;100095.94;1778481;80;25785;-59
2022/02/02 09:01:48;;;;;;;;;;;;;;;3.64;59.85;100090.84;1785535;79;27516;-59
2022/02/02 09:07:01;;;;;;;64.22;24.50;;;;;;;4.05;59.19;100073.25;1793844;80;26129;-59
2022/02/02 09:09:53;;;;;;;60.08;26.20;;;;;;;4.42;59.37;100074.17;1792957;79;25767;-59
2022/02/02 09:20:53;;;;;;;48.08;20.72;;;;;;;7.24;53.78;100047.32;1764547;80;25690;-58
2022/02/02 09:25:40;;;;;;;43.92;19.23;;;;;;;9.05;52.71;100044.55;1777938;80;25698;-58
2022/02/02 09:36:07;;;;;;;35.50;17.37;;;;;;;11.91;48.67;100025.22;1761021;81;25802;-58
2022/02/02 09:38:32;;;;;;;36.23;15.95;;;;;;;12.55;46.76;100017.11;1760950;81;25801;-58
2022/02/02 09:42:03;;;;;;;36.25;15.63;;;;;;;13.18;45.72;100014.70;1766952;80;27457;-58
2022/02/02 09:43:37;;;;;;;39.55;16.20;;;;;;;13.64;43.55;100012.24;1741990;80;25766;-58
2022/02/02 09:46:10;;;;;;;90.57;17.48;;;;;;;14.16;39.17;100011.30;1791497;80;25746;-58
2022/02/02 09:48:48;;;;;;;42.98;16.07;;;;;;;14.15;40.70;100002.85;1792439;80;25775;-58
2022/02/02 09:51:08;;;;;;;40.23;15.50;;;;;;;14.64;35.44;99997.60;1787900;80;25982;-58
2022/02/02 09:53:43;;;;;;;34.75;15.45;;;;;;;14.51;38.88;99988.73;1792888;80;27601;-57
2022/02/02 09:56:26;;;;;;;33.88;13.38;;;;;;;14.82;38.00;99985.14;1793008;80;25776;-58
2022/02/02 10:01:41;;;;;;;40.17;13.40;;;;;;;15.71;36.70;99980.77;1788209;79;25806;-58
2022/02/02 10:04:36;;;;;;;29.70;13.88;;;;;;;15.94;37.19;99968.47;1786539;80;25768;-58
2022/02/02 10:15:32;;;;;;;110.57;16.90;;;;;;;17.28;33.50;99970.14;1775650;79;25745;-59
2022/02/02 10:18:16;;;;;;;39.90;15.10;;;;;;;16.92;32.49;99960.27;1773967;80;25830;-59
2022/02/02 10:20:37;;;;;;;78.57;16.70;;;;;;;17.19;31.79;99947.20;1764540;80;27538;-59
2022/02/02 10:23:06;;;;;;;33.70;12.43;;;;;;;17.60;32.44;99956.94;1767372;79;25867;-57
2022/02/02 10:25:37;;;;;;;28.25;12.20;;;;;;;18.25;31.30;99951.08;1765479;80;25763;-58
2022/02/02 10:28:21;;;;;;;27.60;11.43;;;;;;;18.51;30.51;99945.37;1765854;81;26421;-58
2022/02/02 10:30:52;;;;;;;36.42;11.45;;;;;;;18.76;28.77;99938.23;1768226;80;25645;-59
2022/02/02 10:33:24;;;;;;;24.23;10.30;;;;;;;18.87;28.70;99939.48;1775373;79;28117;-59
2022/02/02 10:35:58;;;;;;;16.97;7.17;;;;;;;19.08;27.72;99937.59;1752723;81;25770;-58
2022/02/02 10:38:29;;;;;;;11.22;6.00;;;;;;;19.02;27.56;99936.55;1752698;81;25743;-58
2022/02/02 10:41:15;;;;;;;11.75;5.60;;;;;;;18.94;24.43;99936.78;1778117;80;25757;-58
2022/02/02 10:43:46;;;;;;;10.05;4.90;;;;;;;18.63;24.59;99930.59;1764245;81;25781;-59
2022/02/02 10:46:18;;;;;;;7.95;3.92;;;;;;;18.22;23.98;99941.98;1765506;81;28638;-58
2022/02/02 10:49:09;;;;;;;8.85;4.53;;;;;;;17.39;21.83;99938.33;1768525;80;25813;-58
2022/02/02 10:51:32;;;;;;;18.25;4.65;;;;;;;16.21;22.96;99938.38;1771957;80;25816;-58
2022/02/02 10:54:17;;;;;;;16.35;4.92;;;;;;;16.14;24.51;99943.43;1769980;80;25783;-59
2022/02/02 10:56:47;;;;;;;11.48;4.75;;;;;;;16.13;24.14;99934.96;1772579;80;25917;-59
2022/02/02 10:59:27;;;;;;;11.97;3.85;;;;;;;16.11;23.43;99941.42;1772386;80;28230;-59
2022/02/02 11:07:11;;;;;;;13.60;4.87;;;;;;;15.58;22.80;99929.41;1765248;81;26116;-59
2022/02/02 11:09:40;;;;;;;11.08;3.85;;;;;;;14.93;23.77;99926.98;1753266;80;25751;-59
2022/02/02 11:12:09;;;;;;;8.88;4.85;;;;;;;14.40;23.49;99925.91;1783445;80;27503;-58
2022/02/02 11:14:59;;;;;;;16.48;4.30;;;;;;;13.73;23.89;99927.89;1783886;80;25804;-59
2022/02/02 11:18:11;;;;;;;12.73;4.75;;;;;;;13.38;24.92;99930.06;1782508;80;25822;-58
2022/02/02 11:20:38;;;;;;;8.60;4.72;;;;;;;13.18;24.76;99916.13;1783895;80;25837;-58
2022/02/02 11:23:08;;;;;;;15.43;6.78;;;;;;;13.15;24.62;99918.16;1783731;80;44094;-58
2022/02/02 11:25:39;;;;;;;14.53;7.70;;;;;;;12.89;25.73;99928.36;1776566;79;27504;-59
2022/02/02 11:28:28;;;;;;;14.68;8.35;;;;;;;13.21;27.07;99919.33;1784100;79;25731;-58
2022/02/02 11:31:11;;;;;;;15.43;8.03;;;;;;;13.84;26.80;99915.86;1776596;80;25787;-59
2022/02/02 11:33:51;;;;;;;11.70;4.58;;;;;;;14.56;26.57;99911.39;1767735;80;25798;-59
2022/02/02 11:36:28;;;;;;;17.80;5.10;;;;;;;14.92;24.98;99913.10;1775595;80;25840;-59
2022/02/02 11:38:55;;;;;;;14.73;6.33;;;;;;;15.27;25.14;99906.11;1778588;80;26881;-59
2022/02/02 11:44:22;;;;;;;10.15;4.70;;;;;;;14.83;23.01;99905.06;1771436;80;34743;-58
2022/02/02 11:49:55;;;;;;;7.00;4.00;;;;;;;13.91;24.28;99908.70;1781284;80;25903;-58
2022/02/02 11:52:42;;;;;;;11.15;4.87;;;;;;;13.66;23.92;99907.52;1782630;80;27488;-58
2022/02/02 11:55:18;;;;;;;17.07;4.47;;;;;;;13.24;25.43;99903.27;1783691;80;25688;-59
2022/02/02 11:58:12;;;;;;;7.35;4.37;;;;;;;12.75;25.07;99902.42;1780809;79;25750;-57
2022/02/02 12:00:44;;;;;;;11.73;4.12;;;;;;;12.10;25.61;99906.02;1769568;80;25836;-58
2022/02/02 12:03:17;;;;;;;13.20;4.87;;;;;;;11.71;26.32;99904.72;1773564;80;25797;-58
2022/02/02 12:06:07;;;;;;;17.02;5.62;;;;;;;11.43;26.54;99906.33;1781517;80;27520;-59
2022/02/02 12:08:49;;;;;;;12.80;5.20;;;;;;;11.18;27.12;99911.63;1780622;80;25666;-58
2022/02/02 12:35:57;;;;;;;12.13;5.70;;;;;;;10.50;29.71;99907.88;1796073;79;25862;-58
2022/02/02 12:57:44;;;;;;;13.80;5.28;;;;;;;10.12;29.74;99913.91;1794558;79;25963;-58
2022/02/02 13:00:14;;;;;;;19.40;5.72;;;;;;;9.94;30.02;99929.54;1795288;79;27477;-59
2022/02/02 13:02:45;;;;;;;16.02;5.25;;;;;;;9.75;29.97;99932.36;1796717;79;25916;-58
2022/02/02 13:05:13;;;;;;;14.03;5.42;;;;;;;9.64;30.00;99933.42;1795454;79;25777;-58
2022/02/02 13:07:42;;;;;;;14.95;5.05;;;;;;;9.52;30.12;99934.97;1796183;79;25949;-58
2022/02/02 13:10:20;;;;;;;23.12;5.58;;;;;;;9.37;30.63;99936.47;1777094;79;25763;-59
2022/02/02 13:15:27;;;;;;;15.00;6.05;;;;;;;9.01;31.49;99937.17;1777633;79;25874;-58
2022/02/02 13:20:50;;;;;;;16.25;6.67;;;;;;;8.88;31.63;99939.34;1791438;79;26495;-58
2022/02/02 13:23:26;;;;;;;13.55;5.75;;;;;;;8.82;31.65;99946.13;1793754;79;25791;-58
2022/02/02 13:26:05;;;;;;;16.17;6.95;;;;;;;8.78;31.65;99939.38;1781874;79;27410;-59
2022/02/02 13:29:01;;;;;;;21.02;7.20;;;;;;;8.65;32.06;99945.03;1782036;80;25615;-57
2022/02/02 13:31:43;;;;;;;19.32;5.25;;;;;;;8.57;32.44;99951.12;1781603;80;25756;-58
2022/02/02 13:34:24;;;;;;;18.92;6.72;;;;;;;8.61;32.39;99946.33;1781109;80;25702;-58
2022/02/02 13:45:37;;;;;;;15.78;5.67;;;;;;;8.59;32.42;99956.34;1795094;79;25745;-58
2022/02/02 14:01:37;;;;;;;14.38;4.37;;;;;;;7.88;32.54;99944.91;1794691;79;25939;-58
2022/02/02 14:04:27;;;;;;;13.98;5.60;;;;;;;7.91;32.48;99940.59;1793398;79;26085;-58
2022/02/02 14:26:11;;;;;;;13.50;5.50;;;;;;;7.37;33.16;99957.47;1781508;79;25692;-59
2022/02/02 14:31:34;;;;;;;23.62;7.30;;;;;;;7.19;33.71;99970.14;1781178;80;25770;-59
2022/02/02 14:33:59;;;;;;;22.35;7.20;;;;;;;7.12;33.93;99969.47;1779274;80;27661;-60
2022/02/02 14:36:31;;;;;;;20.20;6.58;;;;;;;7.04;34.53;99975.00;1780941;80;25754;-58
2022/02/02 14:39:18;;;;;;;17.45;7.83;;;;;;;6.95;34.94;99969.61;1781058;80;25738;-58
2022/02/02 14:41:47;;;;;;;20.32;7.35;;;;;;;6.88;35.29;99969.28;1773839;80;26531;-59
2022/02/02 14:49:15;;;;;;;30.05;7.33;;;;;;;6.66;35.73;99975.63;1772111;80;25827;-58
2022/02/02 15:24:18;;;;;;;37.55;9.80;;;;;;;5.72;37.76;99987.72;1795379;79;25713;-58
2022/02/02 15:27:14;;;;;;;44.88;11.28;;;;;;;5.67;37.84;99993.06;1756377;81;27560;-58
2022/02/02 15:28:51;;;;;;;39.63;10.28;;;;;;;5.58;38.12;99996.84;1762228;80;25667;-59
2022/02/02 15:31:18;;;;;;;38.80;9.63;;;;;;;5.50;38.08;99987.27;1803429;78;25711;-59
2022/02/02 15:33:49;;;;;;;24.60;9.90;;;;;;;5.41;38.55;99996.84;1805833;79;26230;-59
2022/02/02 15:39:06;;;;;;;29.70;10.23;;;;;;;5.28;39.08;100000.13;1777799;80;27505;-59
2022/02/02 15:41:38;;;;;;;31.37;10.05;;;;;;;5.21;39.13;100002.42;1773084;80;25726;-59
2022/02/02 15:54:44;;;;;;;55.75;12.20;;;;;;;4.68;40.69;100022.92;1783761;80;25659;-59
2022/02/02 16:05:00;;;;;;;38.50;11.75;;;;;;;4.01;42.36;100033.16;1787587;80;27544;-59
2022/02/02 16:07:29;;;;;;;28.50;9.05;;;;;;;3.86;42.84;100036.95;1785914;80;25752;-60
2022/02/02 16:10:01;;;;;;;37.95;9.15;;;;;;;3.74;43.16;100039.52;1787214;80;25743;-59
2022/02/02 16:12:39;;;;;;;27.52;8.05;;;;;;;3.60;43.39;100047.66;1785255;80;25773;-59
2022/02/02 16:31:50;;;;;;;19.85;8.13;;;;;;;2.74;45.77;100054.45;1808420;79;27486;-60
2022/02/02 16:36:52;;;;;;;24.72;7.50;;;;;;;2.58;46.05;100067.90;1808229;79;25747;-60
2022/02/02 16:39:21;;;;;;;20.05;8.33;;;;;;;2.54;46.06;100067.25;1806579;79;26038;-60
2022/02/02 16:44:28;;;;;;;32.38;9.13;;;;;;;2.47;46.53;100068.13;1808242;79;27495;-58
2022/02/02 16:46:57;;;;;;;25.50;9.65;;;;;;;2.37;46.78;100071.50;1808491;79;25761;-60
2022/02/02 16:49:26;;;;;;;29.18;9.15;;;;;;;2.31;46.92;100076.73;1808170;79;25761;-60
2022/02/02 16:51:53;;;;;;;33.58;9.75;;;;;;;2.23;47.70;100073.27;1807731;79;25768;-60
2022/02/02 16:54:35;;;;;;;30.12;10.00;;;;;;;2.17;47.96;100070.53;1808227;79;25826;-59
2022/02/02 16:57:10;;;;;;;25.43;8.58;;;;;;;2.07;47.88;100071.20;1807286;78;26916;-59
2022/02/02 17:33:16;;;;;;;28.10;10.35;;;;;;;1.37;51.01;100107.38;1789354;78;27865;-62
2022/02/02 17:36:09;;;;;;;34.70;9.80;;;;;;;1.25;50.52;100113.80;1785748;80;25478;-60
2022/02/02 17:38:34;;;;;;;41.68;10.43;;;;;;;1.20;50.64;100117.20;1783332;80;27543;-59
2022/02/02 17:41:12;;;;;;;27.42;10.53;;;;;;;1.16;50.96;100124.94;1782010;80;25439;-60
2022/02/02 18:21:15;;;;;;;30.90;10.75;;;;;;;0.55;53.20;100136.86;1790711;79;25774;-60
2022/02/02 18:23:50;;;;;;;32.95;12.18;;;;;;;0.54;53.30;100143.58;1812584;79;25788;-60
2022/02/02 18:26:20;;;;;;;30.90;11.15;;;;;;;0.50;53.25;100134.92;1789151;80;26159;-59
2022/02/02 18:31:33;;;;;;;33.90;14.40;;;;;;;0.40;53.13;100144.36;1790073;80;27372;-60
2022/02/02 18:42:48;;;;;;;32.75;10.55;;;;;;;0.06;54.10;100155.02;1814300;79;25891;-60
2022/02/02 18:47:03;;;;;;;42.23;12.13;;;;;;;0.07;54.37;100158.05;1814053;79;25802;-59
2022/02/02 19:00:09;;;;;;;31.30;12.18;;;;;;;-0.04;54.01;100174.95;1814485;79;25859;-60
2022/02/02 19:05:12;;;;;;;34.92;14.75;;;;;;;-0.14;54.42;100195.77;1773725;79;25797;-60
2022/02/02 19:52:18;;;;;;;35.95;14.23;;;;;;;-0.62;55.68;100229.08;1790806;80;25458;-59
2022/02/02 20:09:55;;;;;;;25.35;12.82;;;;;;;-0.85;56.61;100258.36;1759656;80;25687;-59
2022/02/02 20:12:22;;;;;;;34.80;14.90;;;;;;;-0.91;56.49;100257.35;1789708;80;26505;-59
2022/02/02 20:14:46;;;;;;;42.48;15.53;;;;;;;-0.93;56.58;100258.33;1790123;80;25918;-59
2022/02/02 20:17:16;;;;;;;36.08;14.78;;;;;;;-0.92;56.68;100267.52;1784873;80;27471;-59
2022/02/02 20:19:46;;;;;;;43.73;14.45;;;;;;;-0.93;56.73;100266.25;1783612;79;25854;-59
2022/02/02 20:22:11;;;;;;;42.78;14.87;;;;;;;-0.93;56.70;100279.45;1787429;80;25778;-59
2022/02/02 20:24:49;;;;;;;33.30;14.13;;;;;;;-0.98;56.82;100276.59;1784711;80;25817;-59
2022/02/02 20:27:08;;;;;;;35.50;15.35;;;;;;;-1.01;56.90;100277.20;1810337;79;25808;-59
2022/02/02 20:29:36;;;;;;;33.65;15.98;;;;;;;-1.06;57.01;100283.16;1811941;79;27482;-59
2022/02/02 20:32:04;;;;;;;45.05;17.90;;;;;;;-1.11;56.93;100286.89;1811661;79;25732;-59
2022/02/02 20:34:31;;;;;;;52.35;17.92;;;;;;;-1.14;56.92;100283.06;1812024;79;25725;-59
2022/02/02 20:36:58;;;;;;;45.33;17.82;;;;;;;-1.14;57.25;100291.47;1812411;78;26547;-59
2022/02/02 20:39:36;;;;;;;44.23;18.52;;;;;;;-1.18;57.21;100296.03;1811730;79;26407;-59
2022/02/02 20:42:00;;;;;;;41.90;19.40;;;;;;;-1.19;57.56;100300.05;1812385;78;27471;-60
2022/02/02 20:44:42;;;;;;;46.33;20.00;;;;;;;-1.20;57.63;100311.09;1810013;79;25695;-60
2022/02/02 21:00:46;;;;;;;50.52;22.02;;;;;;;-1.33;57.78;100312.13;1787751;80;25694;-58
2022/02/02 21:05:52;;;;;;;59.15;21.25;;;;;;;-1.35;57.96;100321.05;1754596;79;25865;-58
2022/02/02 21:08:23;;;;;;;55.30;21.93;;;;;;;-1.39;58.00;100316.83;1754268;81;27544;-58
2022/02/02 21:10:44;;;;;;;54.85;25.32;;;;;;;-1.43;58.00;100313.47;1755540;81;25711;-58
2022/02/02 21:15:57;;;;;;;56.02;24.82;;;;;;;-1.49;58.08;100325.64;1756392;80;25780;-58
2022/02/02 21:18:31;;;;;;;60.28;26.80;;;;;;;-1.52;58.19;100333.20;1779146;78;25966;-59
2022/02/02 21:20:59;;;;;;;76.07;26.48;;;;;;;-1.48;58.45;100333.95;1781470;78;27481;-58
2022/02/02 21:28:32;;;;;;;73.57;28.27;;;;;;;-1.39;58.24;100345.37;1783208;80;25794;-58
2022/02/02 21:31:00;;;;;;;70.15;28.42;;;;;;;-1.35;58.52;100343.48;1783115;80;25710;-58
2022/02/02 21:33:28;;;;;;;69.15;27.40;;;;;;;-1.31;58.78;100351.63;1783007;80;28145;-59
2022/02/02 21:35:56;;;;;;;61.15;26.00;;;;;;;-1.26;58.51;100349.66;1783190;80;25837;-59
2022/02/02 21:38:39;;;;;;;67.95;26.02;;;;;;;-1.24;58.62;100344.29;1794511;79;26364;-59
2022/02/02 21:40:59;;;;;;;60.45;25.30;;;;;;;-1.21;58.63;100351.59;1793414;79;25801;-59
2022/02/02 21:43:30;;;;;;;72.45;26.07;;;;;;;-1.23;58.43;100353.92;1825200;78;25746;-59
2022/02/02 21:45:57;;;;;;;56.88;26.80;;;;;;;-1.30;58.65;100358.14;1795110;78;27486;-59
2022/02/02 21:48:33;;;;;;;55.78;25.70;;;;;;;-1.37;58.56;100367.27;1825053;78;25690;-59
2022/02/02 21:51:00;;;;;;;60.92;27.05;;;;;;;-1.42;58.56;100371.44;1822686;78;25714;-59
2022/02/02 21:53:23;;;;;;;50.48;24.10;;;;;;;-1.47;58.62;100376.08;1824766;78;25768;-59
2022/02/02 21:55:50;;;;;;;51.53;24.00;;;;;;;-1.58;59.02;100384.93;1825193;78;25686;-58